Time;durP1;ratioP1;P1;durP2;ratioP2;P2;SDS_P1;SDS_P2;PMS_P1;PMS_P2;Temp;Humidity;BMP_temperature;BMP_pressure;BME280_temperature;BME280_humidity;BME280_pressure;Samples;Min_cycle;Max_cycle;Signal;HPM_P1;HPM_P2
2021/12/20 00:00:46;;;;;;;24.85;15.40;;;6.50;99.90;;;;;;2095624;28;19920;-80
2021/12/20 00:01:51;;;;;;;21.52;15.43;;;6.50;99.90;;;;;;2094926;28;20090;-80
2021/12/20 00:02:59;;;;;;;25.25;16.23;;;6.50;99.90;;;;;;2094262;28;20128;-82
2021/12/20 00:04:01;;;;;;;27.63;16.40;;;6.50;99.90;;;;;;2104780;28;20048;-79
2021/12/20 00:05:03;;;;;;;27.50;16.67;;;6.50;99.90;;;;;;2100704;28;20052;-80
2021/12/20 00:06:05;;;;;;;26.17;16.77;;;6.50;99.90;;;;;;2102061;28;20127;-79
2021/12/20 00:07:07;;;;;;;24.80;16.05;;;6.50;99.90;;;;;;2106862;28;20120;-80
2021/12/20 00:08:09;;;;;;;25.95;17.15;;;6.50;99.90;;;;;;2096444;28;20131;-82
2021/12/20 00:09:11;;;;;;;26.27;16.80;;;6.50;99.90;;;;;;2102070;28;20079;-81
2021/12/20 00:10:14;;;;;;;26.60;17.00;;;6.50;99.90;;;;;;2103903;28;20052;-81
2021/12/20 00:11:16;;;;;;;26.13;17.13;;;6.50;99.90;;;;;;2096271;28;20056;-79
2021/12/20 00:12:18;;;;;;;25.83;16.77;;;6.50;99.90;;;;;;2091428;28;20324;-80
2021/12/20 00:13:20;;;;;;;27.92;17.10;;;6.50;99.90;;;;;;2102959;28;20669;-81
2021/12/20 00:14:22;;;;;;;26.92;16.73;;;6.50;99.90;;;;;;2103758;28;20063;-79
2021/12/20 00:15:24;;;;;;;26.50;17.02;;;6.50;99.90;;;;;;2097058;28;20080;-81
2021/12/20 00:16:25;;;;;;;30.02;17.58;;;6.50;99.90;;;;;;2096368;28;20137;-80
2021/12/20 00:17:27;;;;;;;29.05;17.92;;;6.50;99.90;;;;;;2087148;28;20560;-81
2021/12/20 00:18:29;;;;;;;;;;;6.50;99.90;;;;;;2083189;28;20084;-78
2021/12/20 00:19:31;;;;;;;24.17;15.23;;;6.50;99.90;;;;;;2074715;28;20023;-79
2021/12/20 00:20:33;;;;;;;26.30;17.00;;;6.50;99.90;;;;;;2083010;28;20053;-80
2021/12/20 00:21:36;;;;;;;22.88;15.43;;;6.50;99.90;;;;;;2086742;28;20049;-79
2021/12/20 00:22:39;;;;;;;24.60;16.80;;;6.60;99.90;;;;;;2098700;28;20048;-81
2021/12/20 00:23:41;;;;;;;24.52;16.25;;;6.50;99.90;;;;;;2090842;28;20139;-81
2021/12/20 00:24:43;;;;;;;25.10;16.48;;;6.60;99.90;;;;;;2082967;28;20160;-81
2021/12/20 00:25:48;;;;;;;27.38;15.77;;;6.60;99.90;;;;;;2083050;28;20061;-80
2021/12/20 00:26:50;;;;;;;26.77;17.13;;;6.60;99.90;;;;;;2083403;28;20072;-79
2021/12/20 00:27:52;;;;;;;27.65;17.63;;;6.60;99.90;;;;;;2105996;28;20547;-80
2021/12/20 00:28:54;;;;;;;25.98;17.52;;;6.60;99.90;;;;;;2099674;28;20086;-80
2021/12/20 00:29:57;;;;;;;27.45;17.63;;;6.60;99.90;;;;;;2099475;28;20708;-82
2021/12/20 00:30:59;;;;;;;28.27;18.15;;;6.60;99.90;;;;;;2091226;28;20132;-80
2021/12/20 00:32:02;;;;;;;25.58;16.88;;;6.60;99.90;;;;;;2090866;28;20059;-78
2021/12/20 00:33:03;;;;;;;24.55;16.83;;;6.60;99.90;;;;;;2091123;28;20068;-79
2021/12/20 00:34:05;;;;;;;24.92;16.98;;;6.60;99.90;;;;;;2090988;28;20112;-79
2021/12/20 00:35:08;;;;;;;27.88;18.45;;;6.60;99.90;;;;;;2098153;28;20102;-79
2021/12/20 00:36:10;;;;;;;27.55;17.20;;;6.60;99.90;;;;;;2095261;28;20723;-80
2021/12/20 00:41:19;;;;;;;23.47;16.23;;;6.60;99.90;;;;;;2097455;28;20793;-80
2021/12/20 00:42:21;;;;;;;27.50;16.83;;;6.60;99.90;;;;;;2098546;28;20662;-81
2021/12/20 00:43:24;;;;;;;25.75;16.92;;;6.60;99.90;;;;;;2099453;28;20170;-80
2021/12/20 00:44:26;;;;;;;28.02;16.48;;;6.60;99.90;;;;;;2091466;28;20595;-80
2021/12/20 00:45:29;;;;;;;;;;;6.60;99.90;;;;;;2090573;28;20770;-82
2021/12/20 00:46:31;;;;;;;27.13;17.10;;;6.60;99.90;;;;;;2091516;28;19928;-80
2021/12/20 00:47:33;;;;;;;28.33;16.95;;;6.60;99.90;;;;;;2092429;28;20045;-82
2021/12/20 00:48:35;;;;;;;;;;;6.60;99.90;;;;;;2099769;28;20119;-82
2021/12/20 00:49:37;;;;;;;25.80;16.05;;;6.60;99.90;;;;;;2099361;28;19920;-78
2021/12/20 00:50:42;;;;;;;26.33;17.00;;;6.60;99.90;;;;;;2091465;28;20529;-79
2021/12/20 00:51:44;;;;;;;25.10;16.75;;;6.60;99.90;;;;;;2098094;28;20052;-79
2021/12/20 00:52:47;;;;;;;26.05;16.33;;;6.60;99.90;;;;;;2091345;28;20127;-80
2021/12/20 00:53:49;;;;;;;27.75;17.17;;;6.60;99.90;;;;;;2090854;28;20098;-79
2021/12/20 00:54:51;;;;;;;25.40;16.35;;;6.60;99.90;;;;;;2099476;28;20079;-80
2021/12/20 00:55:53;;;;;;;26.55;17.52;;;6.60;99.90;;;;;;2099780;28;20123;-80
2021/12/20 00:56:55;;;;;;;25.83;16.67;;;6.60;99.90;;;;;;2099520;28;20123;-80
2021/12/20 00:57:59;;;;;;;27.10;16.17;;;6.60;99.90;;;;;;2091333;28;20128;-80
2021/12/20 00:59:01;;;;;;;26.63;17.17;;;6.60;99.90;;;;;;2091278;28;20124;-82
2021/12/20 01:00:06;;;;;;;26.92;16.02;;;6.60;99.90;;;;;;2091256;28;20041;-81
2021/12/20 01:01:10;;;;;;;25.98;17.13;;;6.60;99.90;;;;;;2091563;28;20135;-81
2021/12/20 01:02:12;;;;;;;29.30;17.02;;;6.60;99.90;;;;;;2083089;28;20133;-82
2021/12/20 01:03:15;;;;;;;28.17;17.23;;;6.60;99.90;;;;;;2075251;28;20500;-79
2021/12/20 01:04:17;;;;;;;26.88;17.42;;;6.60;99.90;;;;;;2090431;28;20450;-81
2021/12/20 01:05:21;;;;;;;28.52;17.45;;;6.60;99.90;;;;;;2090871;28;20060;-79
2021/12/20 01:06:23;;;;;;;25.88;17.48;;;6.60;99.90;;;;;;2095346;28;20135;-80
2021/12/20 01:07:25;;;;;;;29.27;18.30;;;6.60;99.90;;;;;;2091146;28;20117;-81
2021/12/20 01:08:31;;;;;;;27.17;16.75;;;6.60;99.90;;;;;;2091216;28;20140;-79
2021/12/20 01:09:33;;;;;;;25.38;16.75;;;6.60;99.90;;;;;;2091089;28;20056;-79
2021/12/20 01:10:36;;;;;;;;;;;6.60;99.90;;;;;;2083183;28;20053;-80
2021/12/20 01:11:41;;;;;;;27.90;16.67;;;6.60;99.90;;;;;;2082936;28;19925;-81
2021/12/20 01:12:50;;;;;;;28.30;16.55;;;6.60;99.90;;;;;;2090815;28;20083;-81
2021/12/20 01:13:53;;;;;;;24.40;15.85;;;6.60;99.90;;;;;;2085417;28;20045;-79
2021/12/20 01:14:59;;;;;;;25.50;15.98;;;6.60;99.90;;;;;;2097666;28;20090;-80
2021/12/20 01:16:08;;;;;;;24.48;16.15;;;6.60;99.90;;;;;;2090932;28;20049;-79
2021/12/20 01:17:10;;;;;;;23.85;15.32;;;6.60;99.90;;;;;;2090941;28;20417;-80
2021/12/20 01:18:12;;;;;;;24.63;15.48;;;6.60;99.90;;;;;;2090951;28;20082;-79
2021/12/20 01:19:14;;;;;;;25.95;15.68;;;6.50;99.90;;;;;;2082917;28;20149;-79
2021/12/20 01:20:16;;;;;;;27.98;16.25;;;6.60;99.90;;;;;;2089908;28;20110;-82
2021/12/20 01:21:18;;;;;;;25.13;16.05;;;6.60;99.90;;;;;;2082887;28;20570;-81
2021/12/20 01:22:20;;;;;;;25.23;15.27;;;6.50;99.90;;;;;;2091178;28;20080;-81
2021/12/20 01:23:22;;;;;;;26.25;16.75;;;6.60;99.90;;;;;;2098861;28;20922;-79
2021/12/20 01:24:24;;;;;;;27.92;17.25;;;6.50;99.90;;;;;;2082812;28;20053;-80
2021/12/20 01:25:26;;;;;;;25.35;15.75;;;6.50;99.90;;;;;;2090178;28;20037;-79
2021/12/20 01:26:30;;;;;;;;;;;6.60;99.90;;;;;;2091222;28;20045;-80
2021/12/20 01:27:32;;;;;;;28.08;16.88;;;6.50;99.90;;;;;;2090976;28;19974;-79
2021/12/20 01:28:34;;;;;;;25.83;15.50;;;6.50;99.90;;;;;;2098893;28;20187;-79
2021/12/20 01:29:35;;;;;;;24.20;14.98;;;6.50;99.90;;;;;;2090340;28;20433;-79
2021/12/20 01:30:39;;;;;;;28.23;16.83;;;6.50;99.90;;;;;;2099221;28;20125;-81
2021/12/20 01:31:41;;;;;;;24.48;15.68;;;6.50;99.90;;;;;;2099074;28;20067;-79
2021/12/20 01:32:43;;;;;;;28.00;17.20;;;6.50;99.90;;;;;;2099249;28;20739;-79
2021/12/20 01:33:47;;;;;;;28.23;16.35;;;6.50;99.90;;;;;;2090203;28;20071;-80
2021/12/20 01:34:49;;;;;;;26.85;15.98;;;6.50;99.90;;;;;;2090872;28;20133;-80
2021/12/20 01:35:51;;;;;;;29.48;17.52;;;6.50;99.90;;;;;;2091090;28;20052;-79
2021/12/20 01:36:55;;;;;;;25.10;15.90;;;6.50;99.90;;;;;;2091223;28;20135;-81
2021/12/20 01:37:57;;;;;;;29.42;17.75;;;6.50;99.90;;;;;;2098971;28;20183;-78
2021/12/20 01:39:00;;;;;;;28.58;17.65;;;6.50;99.90;;;;;;2091082;28;20132;-79
2021/12/20 01:40:05;;;;;;;28.55;16.42;;;6.50;99.90;;;;;;2091034;28;20049;-79
2021/12/20 01:41:08;;;;;;;29.88;18.13;;;6.50;99.90;;;;;;2099059;28;20055;-80
2021/12/20 01:42:15;;;;;;;28.40;16.67;;;6.50;99.90;;;;;;2097958;28;20433;-81
2021/12/20 01:43:18;;;;;;;27.58;17.40;;;6.50;99.90;;;;;;2090887;28;20127;-79
2021/12/20 01:44:21;;;;;;;30.63;17.27;;;6.50;99.90;;;;;;2090437;28;20405;-79
2021/12/20 01:45:25;;;;;;;27.88;17.00;;;6.50;99.90;;;;;;2091198;28;20136;-79
2021/12/20 01:46:28;;;;;;;28.00;17.30;;;6.50;99.90;;;;;;2093019;28;20205;-81
2021/12/20 01:47:34;;;;;;;31.20;18.40;;;6.50;99.90;;;;;;2082901;28;20056;-78
2021/12/20 01:48:38;;;;;;;30.15;17.80;;;6.50;99.90;;;;;;2087239;28;20052;-79
2021/12/20 01:49:54;;;;;;;31.48;18.63;;;6.50;99.90;;;;;;2099067;28;20131;-80
2021/12/20 01:52:14;;;;;;;33.03;17.13;;;6.50;99.90;;;;;;2091078;28;20098;-78
2021/12/20 01:53:22;;;;;;;28.10;17.38;;;6.50;99.90;;;;;;2099054;28;20106;-81
2021/12/20 01:54:24;;;;;;;29.55;17.67;;;6.50;99.90;;;;;;2095381;28;20105;-79
2021/12/20 01:55:26;;;;;;;29.10;17.92;;;6.50;99.90;;;;;;2090696;28;20348;-79
2021/12/20 01:56:30;;;;;;;29.90;17.85;;;6.50;99.90;;;;;;2098585;28;20127;-80
2021/12/20 01:57:32;;;;;;;28.90;17.33;;;6.40;99.90;;;;;;2097452;28;20044;-78
2021/12/20 01:58:34;;;;;;;26.88;17.67;;;6.40;99.90;;;;;;2090805;28;20124;-81
2021/12/20 01:59:39;;;;;;;27.73;17.00;;;6.40;99.90;;;;;;2099100;28;20064;-79
2021/12/20 02:02:03;;;;;;;26.27;16.65;;;6.40;99.90;;;;;;2090753;28;20523;-82
2021/12/20 02:03:05;;;;;;;31.25;17.65;;;6.40;99.90;;;;;;2099253;28;20127;-83
2021/12/20 02:04:09;;;;;;;27.52;17.02;;;6.40;99.90;;;;;;2098782;28;20048;-80
2021/12/20 02:05:22;;;;;;;27.77;16.25;;;6.40;99.90;;;;;;2091797;28;20120;-81
2021/12/20 02:06:30;;;;;;;25.35;16.38;;;6.40;99.90;;;;;;2095792;28;20132;-79
2021/12/20 02:07:57;;;;;;;27.60;17.10;;;6.30;99.90;;;;;;2094111;28;20517;-80
2021/12/20 02:08:59;;;;;;;26.27;16.48;;;6.40;99.90;;;;;;2095525;28;20505;-81
2021/12/20 02:10:02;;;;;;;27.35;16.67;;;6.40;99.90;;;;;;2091143;28;20049;-82
2021/12/20 02:11:11;;;;;;;29.52;18.27;;;6.30;99.90;;;;;;2091071;28;20052;-82
2021/12/20 02:12:13;;;;;;;27.60;16.33;;;6.30;99.90;;;;;;2083546;28;20096;-78
2021/12/20 02:13:15;;;;;;;;;;;6.30;99.90;;;;;;2082852;28;20064;-80
2021/12/20 02:14:19;;;;;;;27.38;15.48;;;6.30;99.90;;;;;;2082649;28;19925;-80
2021/12/20 02:15:21;;;;;;;28.25;16.80;;;6.30;99.90;;;;;;2090776;28;20048;-79
2021/12/20 02:16:23;;;;;;;26.42;15.65;;;6.30;99.90;;;;;;2090975;28;20131;-79
2021/12/20 02:17:25;;;;;;;25.92;15.75;;;6.30;99.90;;;;;;2082889;28;20115;-81
2021/12/20 02:18:28;;;;;;;26.98;16.45;;;6.30;99.90;;;;;;2089917;28;20067;-79
2021/12/20 02:19:30;;;;;;;26.38;16.17;;;6.30;99.90;;;;;;2090749;28;20056;-80
2021/12/20 02:20:34;;;;;;;26.73;16.30;;;6.20;99.90;;;;;;2090693;28;20734;-80
2021/12/20 02:21:37;;;;;;;27.70;16.25;;;6.20;99.90;;;;;;2091241;28;20100;-79
2021/12/20 02:22:39;;;;;;;25.83;15.55;;;6.20;99.90;;;;;;2090676;28;20053;-78
2021/12/20 02:23:41;;;;;;;25.63;15.88;;;6.20;99.90;;;;;;2082674;28;20127;-81
2021/12/20 02:24:43;;;;;;;27.60;16.70;;;6.20;99.90;;;;;;2082668;28;20057;-78
2021/12/20 02:25:45;;;;;;;27.70;17.02;;;6.20;99.90;;;;;;2082635;28;20099;-79
2021/12/20 02:26:50;;;;;;;26.33;16.08;;;6.10;99.90;;;;;;2082583;28;20418;-80
2021/12/20 02:27:53;;;;;;;24.70;15.52;;;6.20;99.90;;;;;;2084074;28;20064;-80
2021/12/20 02:28:58;;;;;;;28.58;15.48;;;6.20;99.90;;;;;;2095805;28;20048;-79
2021/12/20 02:30:11;;;;;;;25.30;15.45;;;6.20;99.90;;;;;;2098698;28;20446;-78
2021/12/20 02:37:38;;;;;;;24.85;15.80;;;6.00;99.90;;;;;;2090835;28;20079;-81
2021/12/20 02:38:42;;;;;;;23.75;15.23;;;6.00;99.90;;;;;;2099052;28;20147;-80
2021/12/20 02:39:45;;;;;;;28.05;15.98;;;6.00;99.90;;;;;;2090392;28;20052;-80
2021/12/20 02:40:47;;;;;;;23.27;14.38;;;6.00;99.90;;;;;;2090164;28;20078;-82
2021/12/20 02:41:49;;;;;;;25.17;14.98;;;6.00;99.90;;;;;;2094056;28;20492;-79
2021/12/20 02:42:52;;;;;;;;;;;6.00;99.90;;;;;;2099068;28;20041;-80
2021/12/20 02:43:58;;;;;;;21.35;13.15;;;6.00;99.90;;;;;;2099088;28;20605;-80
2021/12/20 02:45:10;;;;;;;23.35;15.32;;;6.00;99.90;;;;;;2098982;28;20186;-81
2021/12/20 02:47:46;;;;;;;26.73;14.65;;;6.00;99.90;;;;;;2098471;28;20079;-79
2021/12/20 02:48:48;;;;;;;24.17;15.32;;;6.00;99.90;;;;;;2098741;28;20090;-80
2021/12/20 02:49:50;;;;;;;22.23;14.77;;;6.00;99.90;;;;;;2090793;28;20049;-79
2021/12/20 02:50:56;;;;;;;26.10;14.73;;;6.00;99.90;;;;;;2090581;28;20049;-81
2021/12/20 02:52:07;;;;;;;23.23;15.00;;;6.00;99.90;;;;;;2090447;28;20106;-81
2021/12/20 02:53:09;;;;;;;24.98;15.30;;;6.00;99.90;;;;;;2090495;28;20061;-80
2021/12/20 02:54:14;;;;;;;26.30;14.85;;;5.90;99.90;;;;;;2090168;28;20049;-82
2021/12/20 02:55:17;;;;;;;23.05;14.90;;;6.00;99.90;;;;;;2098481;28;20076;-80
2021/12/20 02:56:20;;;;;;;24.08;14.30;;;5.90;99.90;;;;;;2098447;28;20079;-79
2021/12/20 02:57:22;;;;;;;23.02;14.40;;;5.90;99.90;;;;;;2082003;28;20129;-79
2021/12/20 02:58:24;;;;;;;23.48;14.35;;;5.90;99.90;;;;;;2082447;28;20060;-79
2021/12/20 02:59:27;;;;;;;22.30;13.13;;;5.90;99.90;;;;;;2082516;28;20128;-80
2021/12/20 03:00:29;;;;;;;22.85;14.38;;;5.90;99.90;;;;;;2090466;28;20060;-79
2021/12/20 03:01:31;;;;;;;20.13;13.15;;;5.90;99.90;;;;;;2082650;28;20057;-79
2021/12/20 03:02:34;;;;;;;22.42;13.82;;;5.80;99.90;;;;;;2082810;28;20160;-81
2021/12/20 03:03:36;;;;;;;29.45;14.02;;;5.80;99.90;;;;;;2091494;28;20044;-81
2021/12/20 03:04:39;;;;;;;24.05;14.43;;;5.80;99.90;;;;;;2095969;28;20068;-80
2021/12/20 03:05:41;;;;;;;25.60;14.50;;;5.80;99.90;;;;;;2090161;28;20068;-85
2021/12/20 03:06:49;;;;;;;21.58;13.70;;;5.80;99.90;;;;;;2090290;28;20132;-81
2021/12/20 03:07:53;;;;;;;22.45;13.70;;;5.80;99.90;;;;;;2091578;28;20056;-79
2021/12/20 03:08:57;;;;;;;24.02;14.50;;;5.80;99.90;;;;;;2098057;28;20127;-80
2021/12/20 03:10:03;;;;;;;25.15;14.55;;;5.80;99.90;;;;;;2098752;28;20492;-80
2021/12/20 03:11:05;;;;;;;23.48;13.75;;;5.80;99.90;;;;;;2097471;28;20110;-82
2021/12/20 03:12:08;;;;;;;;;;;5.80;99.90;;;;;;2092995;28;20057;-80
2021/12/20 03:13:10;;;;;;;;;;;5.80;99.90;;;;;;2098978;28;20007;-79
2021/12/20 03:15:23;;;;;;;23.58;13.63;;;5.70;99.90;;;;;;2090259;28;20060;-81
2021/12/20 03:16:27;;;;;;;22.48;13.40;;;5.70;99.90;;;;;;2098384;28;20076;-78
2021/12/20 03:17:29;;;;;;;25.17;14.43;;;5.70;99.90;;;;;;2098330;28;20135;-79
2021/12/20 03:18:31;;;;;;;;;;;5.80;99.90;;;;;;2098922;28;20076;-81
2021/12/20 03:19:33;;;;;;;24.52;13.95;;;5.70;99.90;;;;;;2090258;28;20012;-79
2021/12/20 03:20:35;;;;;;;24.75;13.65;;;5.80;99.90;;;;;;2089134;28;20076;-79
2021/12/20 03:21:37;;;;;;;23.75;13.63;;;5.70;99.90;;;;;;2095711;28;20048;-79
2021/12/20 03:22:39;;;;;;;;;;;5.70;99.90;;;;;;2090512;28;20116;-80
2021/12/20 03:23:41;;;;;;;24.02;13.90;;;5.70;99.90;;;;;;2090300;28;19920;-79
2021/12/20 03:24:44;;;;;;;22.35;13.05;;;5.70;99.90;;;;;;2090455;28;20123;-78
2021/12/20 03:25:46;;;;;;;22.23;13.18;;;5.70;99.90;;;;;;2090453;28;20119;-81
2021/12/20 03:26:49;;;;;;;22.08;13.80;;;5.70;99.90;;;;;;2090287;28;20077;-81
2021/12/20 03:27:52;;;;;;;25.40;14.27;;;5.70;99.90;;;;;;2088089;28;20512;-79
2021/12/20 03:29:00;;;;;;;22.23;14.20;;;5.70;99.90;;;;;;2097582;28;20045;-80
2021/12/20 03:30:05;;;;;;;24.85;14.75;;;5.70;99.90;;;;;;2098489;28;20049;-80
2021/12/20 03:31:07;;;;;;;25.95;15.02;;;5.70;99.90;;;;;;2097810;28;20051;-80
2021/12/20 03:32:09;;;;;;;24.83;14.48;;;5.70;99.90;;;;;;2090715;28;20139;-80
2021/12/20 03:33:11;;;;;;;24.20;14.40;;;5.70;99.90;;;;;;2090589;28;20052;-79
2021/12/20 03:34:16;;;;;;;;;;;5.70;99.90;;;;;;2083856;28;20053;-80
2021/12/20 03:35:17;;;;;;;23.60;13.50;;;5.70;99.90;;;;;;2090951;28;20043;-79
2021/12/20 03:36:20;;;;;;;25.25;14.57;;;5.70;99.90;;;;;;2090378;28;20055;-79
2021/12/20 03:37:22;;;;;;;25.65;14.15;;;5.70;99.90;;;;;;2095394;28;20064;-81
2021/12/20 03:38:24;;;;;;;24.58;14.55;;;5.70;99.90;;;;;;2090256;28;20136;-81
2021/12/20 03:39:26;;;;;;;24.02;14.65;;;5.70;99.90;;;;;;2095669;28;20048;-82
2021/12/20 03:40:28;;;;;;;;;;;5.70;99.90;;;;;;2098581;28;20199;-79
2021/12/20 03:41:30;;;;;;;28.40;14.82;;;5.70;99.90;;;;;;2090752;28;19963;-79
2021/12/20 03:42:32;;;;;;;;;;;5.70;99.90;;;;;;2090643;28;20083;-81
2021/12/20 03:43:35;;;;;;;24.00;13.60;;;5.70;99.90;;;;;;2082238;28;19971;-80
2021/12/20 03:44:43;;;;;;;25.27;14.68;;;5.70;99.90;;;;;;2090260;28;20052;-79
2021/12/20 03:45:49;;;;;;;25.55;15.18;;;5.70;99.90;;;;;;2091952;28;20179;-78
2021/12/20 03:46:51;;;;;;;27.90;15.07;;;5.70;99.90;;;;;;2091065;28;20116;-79
2021/12/20 03:47:53;;;;;;;25.88;15.73;;;5.70;99.90;;;;;;2090264;28;20052;-81
2021/12/20 03:48:55;;;;;;;28.42;15.23;;;5.60;99.90;;;;;;2090189;28;20041;-80
2021/12/20 03:49:57;;;;;;;28.60;15.43;;;5.70;99.90;;;;;;2082423;28;20185;-82
2021/12/20 03:51:01;;;;;;;;;;;5.60;99.90;;;;;;2086725;28;20132;-79
2021/12/20 03:52:07;;;;;;;27.67;15.00;;;5.70;99.90;;;;;;2082414;28;19932;-78
2021/12/20 03:53:09;;;;;;;27.33;15.70;;;5.70;99.90;;;;;;2084259;28;20045;-78
2021/12/20 03:54:11;;;;;;;;;;;5.60;99.90;;;;;;2092551;28;20045;-79
2021/12/20 03:55:14;;;;;;;27.10;15.68;;;5.70;99.90;;;;;;2098851;28;20652;-80
2021/12/20 03:56:16;;;;;;;27.95;16.55;;;5.70;99.90;;;;;;2092082;28;20049;-82
2021/12/20 03:57:18;;;;;;;27.00;15.93;;;5.60;99.90;;;;;;2100417;28;20068;-83
2021/12/20 03:58:20;;;;;;;;;;;5.70;99.90;;;;;;2091637;28;20096;-78
2021/12/20 03:59:22;;;;;;;27.42;16.13;;;5.60;99.90;;;;;;2083956;28;19924;-79
2021/12/20 04:00:24;;;;;;;29.30;17.55;;;5.60;99.90;;;;;;2092257;28;20148;-79
2021/12/20 04:01:28;;;;;;;;;;;5.60;99.90;;;;;;2091852;28;20049;-79
2021/12/20 04:02:37;;;;;;;;;;;5.60;99.90;;;;;;2091851;28;19959;-82
2021/12/20 04:03:40;;;;;;;28.10;15.63;;;5.60;99.90;;;;;;2092037;28;19928;-80
2021/12/20 04:04:42;;;;;;;29.25;17.13;;;5.70;99.90;;;;;;2092208;28;20056;-80
2021/12/20 04:05:47;;;;;;;29.25;17.45;;;5.60;99.90;;;;;;2099297;28;20075;-80
2021/12/20 04:06:49;;;;;;;30.20;17.02;;;5.60;99.90;;;;;;2091557;28;20059;-81
2021/12/20 04:07:51;;;;;;;;;;;5.60;99.90;;;;;;2084181;28;20181;-84
2021/12/20 04:08:54;;;;;;;29.80;16.92;;;5.60;99.90;;;;;;2083690;28;19957;-81
2021/12/20 04:09:56;;;;;;;28.83;16.25;;;5.60;99.90;;;;;;2083853;28;20073;-80
2021/12/20 04:10:58;;;;;;;30.58;17.80;;;5.60;99.90;;;;;;2092252;28;20041;-80
2021/12/20 04:12:00;;;;;;;31.27;17.67;;;5.60;99.90;;;;;;2092165;28;20093;-79
2021/12/20 04:13:02;;;;;;;31.17;17.13;;;5.60;99.90;;;;;;2092028;28;20056;-81
2021/12/20 04:14:04;;;;;;;31.42;18.67;;;5.60;99.90;;;;;;2094484;28;20052;-80
2021/12/20 04:15:07;;;;;;;31.73;17.90;;;5.60;99.90;;;;;;2092424;28;20067;-81
2021/12/20 04:16:09;;;;;;;32.30;18.52;;;5.60;99.90;;;;;;2092142;28;20811;-82
2021/12/20 04:17:11;;;;;;;30.65;16.50;;;5.60;99.90;;;;;;2100281;28;20044;-79
2021/12/20 04:18:13;;;;;;;30.48;18.25;;;5.60;99.90;;;;;;2100484;28;20056;-79
2021/12/20 04:19:15;;;;;;;35.92;18.70;;;5.60;99.90;;;;;;2099997;28;20128;-79
2021/12/20 04:20:17;;;;;;;34.47;17.48;;;5.60;99.90;;;;;;2092470;28;20522;-82
2021/12/20 04:21:21;;;;;;;32.40;17.85;;;5.60;99.90;;;;;;2092264;28;20068;-81
2021/12/20 04:22:23;;;;;;;30.35;17.85;;;5.60;99.90;;;;;;2098372;28;20044;-80
2021/12/20 04:23:25;;;;;;;;;;;5.60;99.90;;;;;;2092067;28;20068;-80
2021/12/20 04:24:27;;;;;;;30.17;17.23;;;5.60;99.90;;;;;;2083752;28;19928;-82
2021/12/20 04:25:29;;;;;;;27.35;16.60;;;5.60;99.90;;;;;;2083967;28;20084;-81
2021/12/20 04:26:31;;;;;;;29.33;16.73;;;5.60;99.90;;;;;;2083561;28;20049;-81
2021/12/20 04:27:33;;;;;;;28.92;17.40;;;5.60;99.90;;;;;;2092127;28;20320;-81
2021/12/20 04:28:35;;;;;;;31.83;18.08;;;5.50;99.90;;;;;;2091644;28;20057;-82
2021/12/20 04:29:37;;;;;;;;;;;5.60;99.90;;;;;;2092038;28;20056;-77
2021/12/20 04:30:39;;;;;;;31.83;17.27;;;5.60;99.90;;;;;;2091598;28;19946;-81
2021/12/20 04:31:41;;;;;;;;;;;5.60;99.90;;;;;;2085399;28;20477;-79
2021/12/20 04:32:45;;;;;;;29.35;17.38;;;5.60;99.90;;;;;;2091554;28;19974;-79
2021/12/20 04:33:47;;;;;;;28.50;17.02;;;5.50;99.90;;;;;;2091746;28;20113;-79
2021/12/20 04:34:49;;;;;;;31.35;17.38;;;5.50;99.90;;;;;;2091649;28;20051;-80
2021/12/20 04:35:51;;;;;;;30.92;18.85;;;5.50;99.90;;;;;;2092160;28;20466;-80
2021/12/20 04:36:54;;;;;;;;;;;5.50;99.90;;;;;;2091744;28;20076;-80
2021/12/20 04:37:58;;;;;;;25.10;16.17;;;5.50;99.90;;;;;;2091883;28;19963;-81
2021/12/20 04:39:01;;;;;;;29.73;16.83;;;5.50;99.90;;;;;;2091093;28;20045;-81
2021/12/20 04:40:08;;;;;;;28.58;17.63;;;5.50;99.90;;;;;;2091999;28;20421;-80
2021/12/20 04:41:11;;;;;;;27.10;16.90;;;5.50;99.90;;;;;;2098420;28;20131;-79
2021/12/20 04:42:13;;;;;;;29.80;17.42;;;5.50;99.90;;;;;;2099993;28;20123;-81
2021/12/20 04:43:15;;;;;;;32.78;18.17;;;5.50;99.90;;;;;;2099647;28;20056;-80
2021/12/20 04:44:17;;;;;;;26.92;17.25;;;5.50;99.90;;;;;;2100119;28;20044;-81
2021/12/20 04:45:21;;;;;;;30.65;17.35;;;5.50;99.90;;;;;;2100244;28;20048;-81
2021/12/20 04:46:23;;;;;;;29.50;17.27;;;5.50;99.90;;;;;;2099930;28;20183;-81
2021/12/20 04:47:25;;;;;;;25.58;16.20;;;5.50;99.90;;;;;;2099466;28;20067;-80
2021/12/20 04:48:27;;;;;;;;;;;5.40;99.90;;;;;;2091828;28;20756;-81
2021/12/20 04:49:30;;;;;;;27.45;15.10;;;5.40;99.90;;;;;;2083598;28;19921;-82
2021/12/20 04:50:32;;;;;;;27.02;16.83;;;5.40;99.90;;;;;;2083661;28;20136;-82
2021/12/20 04:51:34;;;;;;;25.30;16.50;;;5.40;99.90;;;;;;2083533;28;20088;-81
2021/12/20 04:52:36;;;;;;;26.80;15.70;;;5.40;99.90;;;;;;2083444;28;20428;-82
2021/12/20 04:53:39;;;;;;;27.65;16.70;;;5.40;99.90;;;;;;2098976;28;20080;-82
2021/12/20 04:54:41;;;;;;;28.95;16.02;;;5.40;99.90;;;;;;2100274;28;20533;-78
2021/12/20 04:55:43;;;;;;;;;;;5.40;99.90;;;;;;2100062;28;20040;-82
2021/12/20 04:56:45;;;;;;;27.08;15.13;;;5.40;99.90;;;;;;2099733;28;20011;-80
2021/12/20 04:57:47;;;;;;;;;;;5.40;99.90;;;;;;2099206;28;20076;-80
2021/12/20 04:58:49;;;;;;;24.80;14.80;;;5.40;99.90;;;;;;2091716;28;19931;-81
2021/12/20 04:59:51;;;;;;;;;;;5.40;99.90;;;;;;2083706;28;20303;-81
2021/12/20 05:00:53;;;;;;;25.88;14.48;;;5.40;99.90;;;;;;2092795;28;20023;-80
2021/12/20 05:01:55;;;;;;;;;;;5.40;99.90;;;;;;2097614;28;20060;-79
2021/12/20 05:02:57;;;;;;;24.60;14.45;;;5.40;99.90;;;;;;2099655;28;20455;-81
2021/12/20 05:04:00;;;;;;;29.15;16.27;;;5.40;99.90;;;;;;2099530;28;20067;-80
2021/12/20 05:05:02;;;;;;;26.15;15.43;;;5.40;99.90;;;;;;2091561;28;20053;-80
2021/12/20 05:06:04;;;;;;;25.77;15.10;;;5.30;99.90;;;;;;2091627;28;21463;-81
2021/12/20 05:07:06;;;;;;;;;;;5.30;99.90;;;;;;2083813;28;20080;-78
2021/12/20 05:08:10;;;;;;;24.13;14.13;;;5.30;99.90;;;;;;2092266;28;19980;-81
2021/12/20 05:09:12;;;;;;;23.77;13.77;;;5.30;99.90;;;;;;2091496;28;20061;-82
2021/12/20 05:10:26;;;;;;;21.98;14.25;;;5.20;99.90;;;;;;2083841;28;20492;-79
2021/12/20 05:11:30;;;;;;;23.15;14.55;;;5.30;99.90;;;;;;2084955;28;20107;-79
2021/12/20 05:12:32;;;;;;;25.65;15.20;;;5.20;99.90;;;;;;2090795;28;20061;-81
2021/12/20 05:13:33;;;;;;;20.88;13.25;;;5.20;99.90;;;;;;2099779;28;20052;-80
2021/12/20 05:14:36;;;;;;;21.30;13.32;;;5.20;99.90;;;;;;2091968;28;20236;-80
2021/12/20 05:15:39;;;;;;;20.65;12.82;;;5.20;99.90;;;;;;2101322;28;20103;-80
2021/12/20 05:16:43;;;;;;;22.92;14.10;;;5.20;99.90;;;;;;2094235;28;20075;-81
2021/12/20 05:17:45;;;;;;;20.58;12.85;;;5.10;99.90;;;;;;2099688;28;20056;-81
2021/12/20 05:18:47;;;;;;;;;;;5.20;99.90;;;;;;2097796;28;20041;-81
2021/12/20 05:19:56;;;;;;;21.25;12.45;;;5.20;99.90;;;;;;2096976;28;19921;-80
2021/12/20 05:20:59;;;;;;;18.90;11.85;;;5.10;99.90;;;;;;2089771;28;20041;-80
2021/12/20 05:22:01;;;;;;;;;;;5.10;99.90;;;;;;2096639;28;20820;-78
2021/12/20 05:23:04;;;;;;;20.05;11.85;;;5.10;99.90;;;;;;2082035;28;19921;-81
2021/12/20 05:24:07;;;;;;;20.20;12.05;;;5.10;99.90;;;;;;2090456;28;20128;-81
2021/12/20 05:25:11;;;;;;;19.02;12.63;;;5.10;99.90;;;;;;2098143;28;20052;-83
2021/12/20 05:26:15;;;;;;;20.33;12.35;;;5.10;99.90;;;;;;2095812;28;20064;-79
2021/12/20 05:27:17;;;;;;;;;;;5.10;99.90;;;;;;2092974;28;20488;-81
2021/12/20 05:28:19;;;;;;;17.58;11.20;;;5.00;99.90;;;;;;2091703;28;19984;-78
2021/12/20 05:29:23;;;;;;;19.63;12.70;;;5.00;99.90;;;;;;2092305;28;20187;-80
2021/12/20 05:30:26;;;;;;;20.60;12.05;;;5.00;99.90;;;;;;2091692;28;20116;-79
2021/12/20 05:31:28;;;;;;;18.42;11.18;;;5.00;99.90;;;;;;2092000;28;20072;-81
2021/12/20 05:32:30;;;;;;;;;;;5.00;99.90;;;;;;2091977;28;20041;-80
2021/12/20 05:33:34;;;;;;;20.95;11.90;;;5.00;99.90;;;;;;2099799;28;19971;-79
2021/12/20 05:34:36;;;;;;;19.85;11.95;;;5.00;99.90;;;;;;2092476;28;20060;-79
2021/12/20 05:35:38;;;;;;;19.73;12.05;;;5.00;99.90;;;;;;2091602;28;20056;-82
2021/12/20 05:36:40;;;;;;;20.45;12.60;;;5.00;99.90;;;;;;2099755;28;20079;-83
2021/12/20 05:37:42;;;;;;;;;;;5.00;99.90;;;;;;2099637;28;20043;-81
2021/12/20 05:38:44;;;;;;;19.73;11.48;;;5.00;99.90;;;;;;2091609;28;19921;-79
2021/12/20 05:39:46;;;;;;;20.58;11.68;;;5.00;99.90;;;;;;2091785;28;20049;-80
2021/12/20 05:40:49;;;;;;;20.85;12.32;;;5.00;99.90;;;;;;2099579;28;20463;-82
2021/12/20 05:41:50;;;;;;;;;;;5.00;99.90;;;;;;2098932;28;20076;-83
2021/12/20 05:42:52;;;;;;;21.88;12.55;;;5.00;99.90;;;;;;2091604;28;20383;-82
2021/12/20 05:43:54;;;;;;;;;;;5.00;99.90;;;;;;2083941;28;20053;-82
2021/12/20 05:44:57;;;;;;;19.17;12.43;;;5.00;99.90;;;;;;2091218;28;20373;-82